sensor_id;sensor_type;location;lat;lon;timestamp;P1;durP1;ratioP1;P2;durP2;ratioP2
7903;SDS011;3997;48.416;8.512;2023-03-17T00:01:07;2.63;;;2.40;;
7903;SDS011;3997;48.416;8.512;2023-03-17T00:03:35;2.35;;;2.20;;
7903;SDS011;3997;48.416;8.512;2023-03-17T00:06:01;2.40;;;2.20;;
7903;SDS011;3997;48.416;8.512;2023-03-17T00:08:30;2.35;;;2.05;;
7903;SDS011;3997;48.416;8.512;2023-03-17T00:10:57;3.45;;;2.30;;
7903;SDS011;3997;48.416;8.512;2023-03-17T00:13:24;3.33;;;2.42;;
7903;SDS011;3997;48.416;8.512;2023-03-17T00:15:52;2.38;;;2.05;;
7903;SDS011;3997;48.416;8.512;2023-03-17T00:18:19;2.40;;;2.13;;
7903;SDS011;3997;48.416;8.512;2023-03-17T00:20:46;2.97;;;2.08;;
7903;SDS011;3997;48.416;8.512;2023-03-17T00:23:14;2.50;;;2.30;;
7903;SDS011;3997;48.416;8.512;2023-03-17T00:25:41;3.38;;;2.33;;
7903;SDS011;3997;48.416;8.512;2023-03-17T00:28:10;2.85;;;2.47;;
7903;SDS011;3997;48.416;8.512;2023-03-17T00:30:38;2.28;;;2.08;;
7903;SDS011;3997;48.416;8.512;2023-03-17T00:33:06;4.82;;;2.55;;
7903;SDS011;3997;48.416;8.512;2023-03-17T00:35:32;2.25;;;2.05;;
7903;SDS011;3997;48.416;8.512;2023-03-17T00:37:59;2.75;;;2.40;;
7903;SDS011;3997;48.416;8.512;2023-03-17T00:40:26;3.20;;;2.10;;
7903;SDS011;3997;48.416;8.512;2023-03-17T00:42:53;2.30;;;2.15;;
7903;SDS011;3997;48.416;8.512;2023-03-17T00:45:20;2.60;;;2.40;;
7903;SDS011;3997;48.416;8.512;2023-03-17T00:47:47;2.72;;;2.53;;
7903;SDS011;3997;48.416;8.512;2023-03-17T00:50:16;2.53;;;2.33;;
7903;SDS011;3997;48.416;8.512;2023-03-17T00:52:44;2.83;;;2.53;;
7903;SDS011;3997;48.416;8.512;2023-03-17T00:55:10;3.28;;;2.15;;
7903;SDS011;3997;48.416;8.512;2023-03-17T00:57:37;2.13;;;1.92;;
7903;SDS011;3997;48.416;8.512;2023-03-17T01:00:06;2.40;;;2.20;;
7903;SDS011;3997;48.416;8.512;2023-03-17T01:02:33;2.25;;;2.05;;
7903;SDS011;3997;48.416;8.512;2023-03-17T01:05:00;2.28;;;2.08;;
7903;SDS011;3997;48.416;8.512;2023-03-17T01:07:28;2.92;;;2.30;;
7903;SDS011;3997;48.416;8.512;2023-03-17T01:09:54;2.25;;;2.05;;
7903;SDS011;3997;48.416;8.512;2023-03-17T01:12:21;2.63;;;2.40;;
7903;SDS011;3997;48.416;8.512;2023-03-17T01:14:47;2.60;;;2.40;;
7903;SDS011;3997;48.416;8.512;2023-03-17T01:17:14;3.17;;;2.55;;
7903;SDS011;3997;48.416;8.512;2023-03-17T01:19:42;2.10;;;2.00;;
7903;SDS011;3997;48.416;8.512;2023-03-17T01:22:08;2.42;;;2.22;;
7903;SDS011;3997;48.416;8.512;2023-03-17T01:24:36;3.85;;;2.40;;
7903;SDS011;3997;48.416;8.512;2023-03-17T01:27:04;2.50;;;2.30;;
7903;SDS011;3997;48.416;8.512;2023-03-17T01:29:30;2.60;;;2.38;;
7903;SDS011;3997;48.416;8.512;2023-03-17T01:31:57;3.95;;;2.50;;
7903;SDS011;3997;48.416;8.512;2023-03-17T01:34:23;2.60;;;2.05;;
7903;SDS011;3997;48.416;8.512;2023-03-17T01:36:50;2.53;;;2.30;;
7903;SDS011;3997;48.416;8.512;2023-03-17T01:39:17;3.63;;;2.38;;
7903;SDS011;3997;48.416;8.512;2023-03-17T01:41:45;2.30;;;2.10;;
7903;SDS011;3997;48.416;8.512;2023-03-17T01:44:16;2.80;;;2.20;;
7903;SDS011;3997;48.416;8.512;2023-03-17T01:46:43;3.80;;;2.60;;
7903;SDS011;3997;48.416;8.512;2023-03-17T01:49:14;4.35;;;2.30;;
7903;SDS011;3997;48.416;8.512;2023-03-17T01:51:43;2.55;;;2.30;;
7903;SDS011;3997;48.416;8.512;2023-03-17T01:54:12;2.67;;;2.00;;
7903;SDS011;3997;48.416;8.512;2023-03-17T01:56:40;2.65;;;2.45;;
7903;SDS011;3997;48.416;8.512;2023-03-17T01:59:10;2.92;;;2.50;;
7903;SDS011;3997;48.416;8.512;2023-03-17T02:01:40;2.78;;;2.30;;
7903;SDS011;3997;48.416;8.512;2023-03-17T02:04:07;3.85;;;2.22;;
7903;SDS011;3997;48.416;8.512;2023-03-17T02:06:35;2.90;;;2.40;;
7903;SDS011;3997;48.416;8.512;2023-03-17T02:09:02;2.08;;;1.95;;
7903;SDS011;3997;48.416;8.512;2023-03-17T02:11:28;6.28;;;2.20;;
7903;SDS011;3997;48.416;8.512;2023-03-17T02:13:55;3.90;;;2.45;;
7903;SDS011;3997;48.416;8.512;2023-03-17T02:16:23;3.35;;;2.15;;
7903;SDS011;3997;48.416;8.512;2023-03-17T02:18:50;2.63;;;2.42;;
7903;SDS011;3997;48.416;8.512;2023-03-17T02:24:03;3.78;;;2.60;;
7903;SDS011;3997;48.416;8.512;2023-03-17T02:26:32;3.30;;;3.00;;
7903;SDS011;3997;48.416;8.512;2023-03-17T02:28:59;3.20;;;2.78;;
7903;SDS011;3997;48.416;8.512;2023-03-17T02:31:25;3.38;;;2.45;;
7903;SDS011;3997;48.416;8.512;2023-03-17T02:33:52;5.45;;;3.20;;
7903;SDS011;3997;48.416;8.512;2023-03-17T02:36:18;2.90;;;2.42;;
7903;SDS011;3997;48.416;8.512;2023-03-17T02:38:45;3.78;;;2.80;;
7903;SDS011;3997;48.416;8.512;2023-03-17T02:41:13;3.92;;;1.92;;
7903;SDS011;3997;48.416;8.512;2023-03-17T02:43:40;2.40;;;2.20;;
7903;SDS011;3997;48.416;8.512;2023-03-17T02:46:07;3.13;;;2.47;;
7903;SDS011;3997;48.416;8.512;2023-03-17T02:48:33;2.58;;;2.28;;
7903;SDS011;3997;48.416;8.512;2023-03-17T02:51:02;2.63;;;2.42;;
7903;SDS011;3997;48.416;8.512;2023-03-17T02:53:28;3.10;;;2.55;;
7903;SDS011;3997;48.416;8.512;2023-03-17T02:55:55;1.95;;;1.70;;
7903;SDS011;3997;48.416;8.512;2023-03-17T02:58:23;2.72;;;2.50;;
7903;SDS011;3997;48.416;8.512;2023-03-17T03:00:49;3.53;;;2.55;;
7903;SDS011;3997;48.416;8.512;2023-03-17T03:03:16;3.10;;;2.33;;
7903;SDS011;3997;48.416;8.512;2023-03-17T03:05:42;4.32;;;2.60;;
7903;SDS011;3997;48.416;8.512;2023-03-17T03:08:08;4.05;;;2.70;;
7903;SDS011;3997;48.416;8.512;2023-03-17T03:10:35;2.40;;;2.10;;
7903;SDS011;3997;48.416;8.512;2023-03-17T03:13:01;2.80;;;2.60;;
7903;SDS011;3997;48.416;8.512;2023-03-17T03:15:29;2.83;;;2.58;;
7903;SDS011;3997;48.416;8.512;2023-03-17T03:17:55;3.03;;;2.50;;
7903;SDS011;3997;48.416;8.512;2023-03-17T03:20:22;2.55;;;2.35;;
7903;SDS011;3997;48.416;8.512;2023-03-17T03:22:49;2.50;;;2.30;;
7903;SDS011;3997;48.416;8.512;2023-03-17T03:25:15;3.47;;;2.67;;
7903;SDS011;3997;48.416;8.512;2023-03-17T03:27:42;2.40;;;2.20;;
7903;SDS011;3997;48.416;8.512;2023-03-17T03:30:09;2.90;;;2.60;;
7903;SDS011;3997;48.416;8.512;2023-03-17T03:32:37;2.90;;;2.30;;
7903;SDS011;3997;48.416;8.512;2023-03-17T03:35:03;3.28;;;2.50;;
7903;SDS011;3997;48.416;8.512;2023-03-17T03:37:30;3.00;;;2.47;;
7903;SDS011;3997;48.416;8.512;2023-03-17T03:39:56;6.97;;;2.72;;
7903;SDS011;3997;48.416;8.512;2023-03-17T03:42:23;5.45;;;2.80;;
7903;SDS011;3997;48.416;8.512;2023-03-17T03:44:49;3.75;;;2.65;;
7903;SDS011;3997;48.416;8.512;2023-03-17T03:47:16;2.42;;;2.22;;
7903;SDS011;3997;48.416;8.512;2023-03-17T03:49:44;3.33;;;2.40;;
7903;SDS011;3997;48.416;8.512;2023-03-17T03:52:10;3.70;;;2.85;;
7903;SDS011;3997;48.416;8.512;2023-03-17T03:54:37;2.58;;;2.33;;
7903;SDS011;3997;48.416;8.512;2023-03-17T03:57:03;3.25;;;2.47;;
7903;SDS011;3997;48.416;8.512;2023-03-17T03:59:30;2.92;;;2.58;;
7903;SDS011;3997;48.416;8.512;2023-03-17T04:01:57;3.30;;;2.80;;
7903;SDS011;3997;48.416;8.512;2023-03-17T04:04:23;2.78;;;2.53;;
7903;SDS011;3997;48.416;8.512;2023-03-17T04:06:51;2.63;;;2.42;;
7903;SDS011;3997;48.416;8.512;2023-03-17T04:09:17;3.08;;;2.60;;
7903;SDS011;3997;48.416;8.512;2023-03-17T04:11:44;2.92;;;2.63;;
7903;SDS011;3997;48.416;8.512;2023-03-17T04:14:11;2.90;;;2.70;;
7903;SDS011;3997;48.416;8.512;2023-03-17T04:16:38;2.63;;;2.33;;
7903;SDS011;3997;48.416;8.512;2023-03-17T04:19:04;2.58;;;2.28;;
7903;SDS011;3997;48.416;8.512;2023-03-17T04:21:31;3.05;;;2.50;;
7903;SDS011;3997;48.416;8.512;2023-03-17T04:23:59;3.55;;;2.50;;
7903;SDS011;3997;48.416;8.512;2023-03-17T04:26:25;3.92;;;1.77;;
7903;SDS011;3997;48.416;8.512;2023-03-17T04:28:52;2.53;;;2.33;;
7903;SDS011;3997;48.416;8.512;2023-03-17T04:31:18;2.75;;;2.50;;
7903;SDS011;3997;48.416;8.512;2023-03-17T04:33:45;2.40;;;2.20;;
7903;SDS011;3997;48.416;8.512;2023-03-17T04:36:14;3.08;;;2.38;;
7903;SDS011;3997;48.416;8.512;2023-03-17T04:38:42;3.58;;;2.50;;
7903;SDS011;3997;48.416;8.512;2023-03-17T04:41:10;2.97;;;2.67;;
7903;SDS011;3997;48.416;8.512;2023-03-17T04:43:36;2.65;;;2.45;;
7903;SDS011;3997;48.416;8.512;2023-03-17T04:46:03;4.07;;;3.00;;
7903;SDS011;3997;48.416;8.512;2023-03-17T04:48:30;3.00;;;2.70;;
7903;SDS011;3997;48.416;8.512;2023-03-17T04:50:56;4.13;;;3.03;;
7903;SDS011;3997;48.416;8.512;2023-03-17T04:53:23;2.85;;;2.33;;
7903;SDS011;3997;48.416;8.512;2023-03-17T04:55:49;3.17;;;2.58;;
7903;SDS011;3997;48.416;8.512;2023-03-17T04:58:18;3.08;;;2.60;;
7903;SDS011;3997;48.416;8.512;2023-03-17T05:00:45;2.97;;;2.67;;
7903;SDS011;3997;48.416;8.512;2023-03-17T05:03:11;3.83;;;3.13;;
7903;SDS011;3997;48.416;8.512;2023-03-17T05:05:38;3.17;;;2.88;;
7903;SDS011;3997;48.416;8.512;2023-03-17T05:08:04;3.13;;;2.45;;
7903;SDS011;3997;48.416;8.512;2023-03-17T05:10:31;3.47;;;2.75;;
7903;SDS011;3997;48.416;8.512;2023-03-17T05:12:57;2.83;;;2.50;;
7903;SDS011;3997;48.416;8.512;2023-03-17T05:15:25;4.97;;;2.88;;
7903;SDS011;3997;48.416;8.512;2023-03-17T05:17:52;3.17;;;2.90;;
7903;SDS011;3997;48.416;8.512;2023-03-17T05:20:18;4.78;;;3.17;;
7903;SDS011;3997;48.416;8.512;2023-03-17T05:22:45;2.25;;;2.05;;
7903;SDS011;3997;48.416;8.512;2023-03-17T05:25:11;2.63;;;2.42;;
7903;SDS011;3997;48.416;8.512;2023-03-17T05:27:38;4.47;;;2.70;;
7903;SDS011;3997;48.416;8.512;2023-03-17T05:30:05;2.95;;;2.50;;
7903;SDS011;3997;48.416;8.512;2023-03-17T05:32:33;2.88;;;2.58;;
7903;SDS011;3997;48.416;8.512;2023-03-17T05:35:00;4.78;;;2.42;;
7903;SDS011;3997;48.416;8.512;2023-03-17T05:37:27;2.95;;;2.40;;
7903;SDS011;3997;48.416;8.512;2023-03-17T05:39:54;2.75;;;2.53;;
7903;SDS011;3997;48.416;8.512;2023-03-17T05:42:20;2.60;;;2.40;;
7903;SDS011;3997;48.416;8.512;2023-03-17T05:44:46;2.70;;;2.40;;
7903;SDS011;3997;48.416;8.512;2023-03-17T05:47:13;3.70;;;2.58;;
7903;SDS011;3997;48.416;8.512;2023-03-17T05:49:41;3.17;;;2.63;;
7903;SDS011;3997;48.416;8.512;2023-03-17T05:52:07;3.00;;;2.70;;
7903;SDS011;3997;48.416;8.512;2023-03-17T05:54:34;3.20;;;2.88;;
7903;SDS011;3997;48.416;8.512;2023-03-17T05:57:00;3.90;;;2.53;;
7903;SDS011;3997;48.416;8.512;2023-03-17T05:59:27;5.07;;;3.05;;
7903;SDS011;3997;48.416;8.512;2023-03-17T06:01:54;2.30;;;2.08;;
7903;SDS011;3997;48.416;8.512;2023-03-17T06:04:21;3.15;;;2.33;;
7903;SDS011;3997;48.416;8.512;2023-03-17T06:06:48;2.80;;;2.60;;
7903;SDS011;3997;48.416;8.512;2023-03-17T06:09:15;2.45;;;2.25;;
7903;SDS011;3997;48.416;8.512;2023-03-17T06:11:42;2.92;;;2.63;;
7903;SDS011;3997;48.416;8.512;2023-03-17T06:14:09;2.40;;;2.20;;
7903;SDS011;3997;48.416;8.512;2023-03-17T06:16:35;2.70;;;2.50;;
7903;SDS011;3997;48.416;8.512;2023-03-17T06:19:01;3.47;;;2.60;;
7903;SDS011;3997;48.416;8.512;2023-03-17T06:21:28;3.90;;;2.22;;
7903;SDS011;3997;48.416;8.512;2023-03-17T06:23:56;2.50;;;2.30;;
7903;SDS011;3997;48.416;8.512;2023-03-17T06:26:22;4.38;;;2.95;;
7903;SDS011;3997;48.416;8.512;2023-03-17T06:28:49;4.13;;;3.40;;
7903;SDS011;3997;48.416;8.512;2023-03-17T06:31:15;6.47;;;3.58;;
7903;SDS011;3997;48.416;8.512;2023-03-17T06:33:42;7.80;;;5.57;;
7903;SDS011;3997;48.416;8.512;2023-03-17T06:36:09;8.63;;;6.65;;
7903;SDS011;3997;48.416;8.512;2023-03-17T06:38:35;7.05;;;4.80;;
7903;SDS011;3997;48.416;8.512;2023-03-17T06:41:03;10.55;;;4.63;;
7903;SDS011;3997;48.416;8.512;2023-03-17T06:43:31;5.75;;;4.28;;
7903;SDS011;3997;48.416;8.512;2023-03-17T06:45:57;4.47;;;3.65;;
7903;SDS011;3997;48.416;8.512;2023-03-17T06:48:25;4.78;;;3.63;;
7903;SDS011;3997;48.416;8.512;2023-03-17T06:50:52;5.60;;;3.67;;
7903;SDS011;3997;48.416;8.512;2023-03-17T06:53:19;5.40;;;3.63;;
7903;SDS011;3997;48.416;8.512;2023-03-17T06:55:46;5.63;;;3.45;;
7903;SDS011;3997;48.416;8.512;2023-03-17T06:58:14;2.67;;;2.42;;
7903;SDS011;3997;48.416;8.512;2023-03-17T07:00:41;3.67;;;3.00;;
7903;SDS011;3997;48.416;8.512;2023-03-17T07:03:09;6.45;;;3.92;;
7903;SDS011;3997;48.416;8.512;2023-03-17T07:05:35;7.22;;;4.60;;
7903;SDS011;3997;48.416;8.512;2023-03-17T07:08:03;8.65;;;5.32;;
7903;SDS011;3997;48.416;8.512;2023-03-17T07:10:30;4.93;;;3.13;;
7903;SDS011;3997;48.416;8.512;2023-03-17T07:12:57;5.28;;;3.75;;
7903;SDS011;3997;48.416;8.512;2023-03-17T07:15:25;3.33;;;2.80;;
7903;SDS011;3997;48.416;8.512;2023-03-17T07:17:51;4.45;;;3.20;;
7903;SDS011;3997;48.416;8.512;2023-03-17T07:20:18;3.90;;;2.60;;
7903;SDS011;3997;48.416;8.512;2023-03-17T07:22:45;3.38;;;2.80;;
7903;SDS011;3997;48.416;8.512;2023-03-17T07:25:11;5.43;;;3.25;;
7903;SDS011;3997;48.416;8.512;2023-03-17T07:27:38;6.10;;;3.92;;
7903;SDS011;3997;48.416;8.512;2023-03-17T07:30:05;4.68;;;3.42;;
7903;SDS011;3997;48.416;8.512;2023-03-17T07:32:33;5.07;;;3.35;;
7903;SDS011;3997;48.416;8.512;2023-03-17T07:35:00;5.38;;;3.63;;
7903;SDS011;3997;48.416;8.512;2023-03-17T07:37:27;3.30;;;2.35;;
7903;SDS011;3997;48.416;8.512;2023-03-17T07:39:53;3.63;;;2.60;;
7903;SDS011;3997;48.416;8.512;2023-03-17T07:42:20;2.42;;;1.90;;
7903;SDS011;3997;48.416;8.512;2023-03-17T07:44:46;2.72;;;1.90;;
7903;SDS011;3997;48.416;8.512;2023-03-17T07:47:13;1.85;;;1.50;;
7903;SDS011;3997;48.416;8.512;2023-03-17T07:49:41;1.60;;;1.40;;
7903;SDS011;3997;48.416;8.512;2023-03-17T07:52:08;2.03;;;1.60;;
7903;SDS011;3997;48.416;8.512;2023-03-17T07:54:34;1.70;;;1.58;;
7903;SDS011;3997;48.416;8.512;2023-03-17T07:57:01;1.95;;;1.50;;
7903;SDS011;3997;48.416;8.512;2023-03-17T07:59:28;3.00;;;1.85;;
7903;SDS011;3997;48.416;8.512;2023-03-17T08:01:55;2.85;;;1.92;;
7903;SDS011;3997;48.416;8.512;2023-03-17T08:04:22;2.00;;;1.80;;
7903;SDS011;3997;48.416;8.512;2023-03-17T08:06:50;2.25;;;2.05;;
7903;SDS011;3997;48.416;8.512;2023-03-17T08:09:16;2.45;;;2.00;;
7903;SDS011;3997;48.416;8.512;2023-03-17T08:11:42;2.30;;;2.10;;
7903;SDS011;3997;48.416;8.512;2023-03-17T08:14:09;2.08;;;1.85;;
7903;SDS011;3997;48.416;8.512;2023-03-17T08:16:35;1.55;;;1.45;;
7903;SDS011;3997;48.416;8.512;2023-03-17T08:19:02;2.38;;;1.90;;
7903;SDS011;3997;48.416;8.512;2023-03-17T08:21:30;2.05;;;1.85;;
7903;SDS011;3997;48.416;8.512;2023-03-17T08:23:58;2.65;;;1.75;;
7903;SDS011;3997;48.416;8.512;2023-03-17T08:26:25;2.80;;;2.10;;
7903;SDS011;3997;48.416;8.512;2023-03-17T08:28:51;2.05;;;1.83;;
7903;SDS011;3997;48.416;8.512;2023-03-17T08:31:19;2.22;;;1.73;;
7903;SDS011;3997;48.416;8.512;2023-03-17T08:33:47;2.63;;;1.80;;
7903;SDS011;3997;48.416;8.512;2023-03-17T08:36:14;3.15;;;2.20;;
7903;SDS011;3997;48.416;8.512;2023-03-17T08:38:41;2.40;;;1.95;;
7903;SDS011;3997;48.416;8.512;2023-03-17T08:41:11;2.40;;;1.70;;
7903;SDS011;3997;48.416;8.512;2023-03-17T08:43:38;3.80;;;2.15;;
7903;SDS011;3997;48.416;8.512;2023-03-17T08:46:05;2.80;;;1.77;;
7903;SDS011;3997;48.416;8.512;2023-03-17T08:48:32;2.85;;;1.88;;
7903;SDS011;3997;48.416;8.512;2023-03-17T08:50:58;1.98;;;1.83;;
7903;SDS011;3997;48.416;8.512;2023-03-17T08:53:25;2.88;;;2.25;;
7903;SDS011;3997;48.416;8.512;2023-03-17T08:55:53;2.50;;;2.00;;
7903;SDS011;3997;48.416;8.512;2023-03-17T08:58:21;3.78;;;2.20;;
7903;SDS011;3997;48.416;8.512;2023-03-17T09:00:47;2.10;;;1.90;;
7903;SDS011;3997;48.416;8.512;2023-03-17T09:03:14;2.45;;;2.22;;
7903;SDS011;3997;48.416;8.512;2023-03-17T09:05:40;2.25;;;2.00;;
7903;SDS011;3997;48.416;8.512;2023-03-17T09:08:08;4.72;;;2.25;;
7903;SDS011;3997;48.416;8.512;2023-03-17T09:10:35;2.17;;;1.80;;
7903;SDS011;3997;48.416;8.512;2023-03-17T09:13:01;2.10;;;1.90;;
7903;SDS011;3997;48.416;8.512;2023-03-17T09:15:30;2.63;;;1.98;;
7903;SDS011;3997;48.416;8.512;2023-03-17T09:17:57;1.98;;;1.80;;
7903;SDS011;3997;48.416;8.512;2023-03-17T09:20:24;2.05;;;1.67;;
7903;SDS011;3997;48.416;8.512;2023-03-17T09:22:51;2.85;;;2.10;;
7903;SDS011;3997;48.416;8.512;2023-03-17T09:25:18;1.98;;;1.83;;
7903;SDS011;3997;48.416;8.512;2023-03-17T09:27:44;2.60;;;1.80;;
7903;SDS011;3997;48.416;8.512;2023-03-17T09:30:11;2.40;;;2.20;;
7903;SDS011;3997;48.416;8.512;2023-03-17T09:32:39;4.90;;;1.98;;
7903;SDS011;3997;48.416;8.512;2023-03-17T09:35:06;2.03;;;1.83;;
7903;SDS011;3997;48.416;8.512;2023-03-17T09:37:33;2.05;;;1.60;;
7903;SDS011;3997;48.416;8.512;2023-03-17T09:40:00;2.67;;;1.80;;
7903;SDS011;3997;48.416;8.512;2023-03-17T09:45:27;2.28;;;1.88;;
7903;SDS011;3997;48.416;8.512;2023-03-17T09:47:59;2.00;;;1.90;;
7903;SDS011;3997;48.416;8.512;2023-03-17T09:50:31;2.42;;;2.22;;
7903;SDS011;3997;48.416;8.512;2023-03-17T09:53:00;2.40;;;2.25;;
7903;SDS011;3997;48.416;8.512;2023-03-17T09:55:29;3.00;;;2.80;;
7903;SDS011;3997;48.416;8.512;2023-03-17T09:57:57;2.70;;;2.50;;
7903;SDS011;3997;48.416;8.512;2023-03-17T10:00:25;2.90;;;2.70;;
7903;SDS011;3997;48.416;8.512;2023-03-17T10:02:53;2.88;;;2.60;;
7903;SDS011;3997;48.416;8.512;2023-03-17T10:05:22;3.38;;;2.60;;
7903;SDS011;3997;48.416;8.512;2023-03-17T10:07:52;2.70;;;2.50;;
7903;SDS011;3997;48.416;8.512;2023-03-17T10:10:22;2.50;;;2.30;;
7903;SDS011;3997;48.416;8.512;2023-03-17T10:12:53;3.58;;;2.80;;
7903;SDS011;3997;48.416;8.512;2023-03-17T10:15:22;2.60;;;2.40;;
7903;SDS011;3997;48.416;8.512;2023-03-17T10:17:50;2.63;;;2.47;;
7903;SDS011;3997;48.416;8.512;2023-03-17T10:20:17;2.88;;;2.67;;
7903;SDS011;3997;48.416;8.512;2023-03-17T10:22:48;3.40;;;2.90;;
7903;SDS011;3997;48.416;8.512;2023-03-17T10:25:17;2.97;;;2.78;;
7903;SDS011;3997;48.416;8.512;2023-03-17T10:27:45;3.15;;;2.95;;
7903;SDS011;3997;48.416;8.512;2023-03-17T10:30:14;2.97;;;2.78;;
7903;SDS011;3997;48.416;8.512;2023-03-17T10:32:41;2.88;;;2.70;;
7903;SDS011;3997;48.416;8.512;2023-03-17T10:35:08;3.25;;;3.05;;
7903;SDS011;3997;48.416;8.512;2023-03-17T10:37:35;3.42;;;3.17;;
7903;SDS011;3997;48.416;8.512;2023-03-17T10:40:04;3.15;;;2.95;;
7903;SDS011;3997;48.416;8.512;2023-03-17T10:42:34;2.97;;;2.78;;
7903;SDS011;3997;48.416;8.512;2023-03-17T10:45:12;3.17;;;3.00;;
7903;SDS011;3997;48.416;8.512;2023-03-17T10:47:42;3.50;;;3.20;;
7903;SDS011;3997;48.416;8.512;2023-03-17T10:50:20;3.17;;;2.92;;
7903;SDS011;3997;48.416;8.512;2023-03-17T10:52:50;3.35;;;3.15;;
7903;SDS011;3997;48.416;8.512;2023-03-17T10:55:19;3.88;;;3.42;;
7903;SDS011;3997;48.416;8.512;2023-03-17T10:57:48;3.60;;;3.30;;
7903;SDS011;3997;48.416;8.512;2023-03-17T11:00:15;3.70;;;3.10;;
7903;SDS011;3997;48.416;8.512;2023-03-17T11:02:45;3.45;;;3.25;;
7903;SDS011;3997;48.416;8.512;2023-03-17T11:05:16;3.60;;;3.30;;
7903;SDS011;3997;48.416;8.512;2023-03-17T11:07:43;3.55;;;3.35;;
7903;SDS011;3997;48.416;8.512;2023-03-17T11:10:14;3.10;;;2.90;;
7903;SDS011;3997;48.416;8.512;2023-03-17T11:12:42;3.65;;;3.20;;
7903;SDS011;3997;48.416;8.512;2023-03-17T11:15:10;2.95;;;2.75;;
7903;SDS011;3997;48.416;8.512;2023-03-17T11:17:37;3.05;;;2.85;;
7903;SDS011;3997;48.416;8.512;2023-03-17T11:20:12;3.45;;;3.15;;
7903;SDS011;3997;48.416;8.512;2023-03-17T11:22:42;2.92;;;2.72;;
7903;SDS011;3997;48.416;8.512;2023-03-17T11:25:11;3.17;;;2.50;;
7903;SDS011;3997;48.416;8.512;2023-03-17T11:27:39;2.83;;;2.63;;
7903;SDS011;3997;48.416;8.512;2023-03-17T11:30:16;2.65;;;2.45;;
7903;SDS011;3997;48.416;8.512;2023-03-17T11:32:46;2.30;;;2.20;;
7903;SDS011;3997;48.416;8.512;2023-03-17T11:35:20;2.95;;;2.40;;
7903;SDS011;3997;48.416;8.512;2023-03-17T11:37:55;2.30;;;2.13;;
7903;SDS011;3997;48.416;8.512;2023-03-17T11:40:27;1.90;;;1.80;;
7903;SDS011;3997;48.416;8.512;2023-03-17T11:42:57;3.58;;;3.28;;
7903;SDS011;3997;48.416;8.512;2023-03-17T11:45:40;4.20;;;3.15;;
7903;SDS011;3997;48.416;8.512;2023-03-17T11:48:17;3.03;;;2.83;;
7903;SDS011;3997;48.416;8.512;2023-03-17T11:50:49;3.65;;;3.40;;
7903;SDS011;3997;48.416;8.512;2023-03-17T11:53:23;3.33;;;3.13;;
7903;SDS011;3997;48.416;8.512;2023-03-17T11:55:53;3.97;;;3.28;;
7903;SDS011;3997;48.416;8.512;2023-03-17T11:58:25;3.42;;;3.28;;
7903;SDS011;3997;48.416;8.512;2023-03-17T12:00:54;3.10;;;3.00;;
7903;SDS011;3997;48.416;8.512;2023-03-17T12:03:24;3.40;;;3.20;;
7903;SDS011;3997;48.416;8.512;2023-03-17T12:05:53;3.05;;;2.92;;
7903;SDS011;3997;48.416;8.512;2023-03-17T12:08:23;3.10;;;3.00;;
7903;SDS011;3997;48.416;8.512;2023-03-17T12:10:54;3.33;;;3.20;;
7903;SDS011;3997;48.416;8.512;2023-03-17T12:13:22;2.97;;;2.88;;
7903;SDS011;3997;48.416;8.512;2023-03-17T12:15:51;2.85;;;2.65;;
7903;SDS011;3997;48.416;8.512;2023-03-17T12:18:22;2.95;;;2.85;;
7903;SDS011;3997;48.416;8.512;2023-03-17T12:20:52;3.70;;;3.20;;
7903;SDS011;3997;48.416;8.512;2023-03-17T12:23:23;3.30;;;3.20;;
7903;SDS011;3997;48.416;8.512;2023-03-17T12:25:55;3.55;;;3.35;;
7903;SDS011;3997;48.416;8.512;2023-03-17T12:28:24;2.92;;;2.83;;
7903;SDS011;3997;48.416;8.512;2023-03-17T12:30:52;3.17;;;3.03;;
7903;SDS011;3997;48.416;8.512;2023-03-17T12:33:23;3.40;;;3.25;;
7903;SDS011;3997;48.416;8.512;2023-03-17T12:35:52;3.35;;;3.22;;
7903;SDS011;3997;48.416;8.512;2023-03-17T12:38:21;3.88;;;3.33;;
7903;SDS011;3997;48.416;8.512;2023-03-17T12:43:37;3.83;;;3.63;;
7903;SDS011;3997;48.416;8.512;2023-03-17T12:48:55;3.30;;;3.10;;
7903;SDS011;3997;48.416;8.512;2023-03-17T12:51:33;3.33;;;3.03;;
7903;SDS011;3997;48.416;8.512;2023-03-17T12:54:00;3.15;;;3.05;;
7903;SDS011;3997;48.416;8.512;2023-03-17T12:56:26;3.60;;;3.40;;
7903;SDS011;3997;48.416;8.512;2023-03-17T12:58:57;4.00;;;3.70;;
7903;SDS011;3997;48.416;8.512;2023-03-17T13:01:28;3.70;;;3.50;;
7903;SDS011;3997;48.416;8.512;2023-03-17T13:04:14;4.00;;;3.80;;
7903;SDS011;3997;48.416;8.512;2023-03-17T13:06:42;3.30;;;3.10;;
7903;SDS011;3997;48.416;8.512;2023-03-17T13:12:04;3.20;;;3.10;;
7903;SDS011;3997;48.416;8.512;2023-03-17T13:14:38;3.92;;;3.53;;
7903;SDS011;3997;48.416;8.512;2023-03-17T13:17:28;3.17;;;3.08;;
7903;SDS011;3997;48.416;8.512;2023-03-17T13:20:02;3.10;;;3.00;;
7903;SDS011;3997;48.416;8.512;2023-03-17T13:22:33;3.72;;;3.60;;
7903;SDS011;3997;48.416;8.512;2023-03-17T13:27:42;3.28;;;3.10;;
7903;SDS011;3997;48.416;8.512;2023-03-17T13:32:55;3.78;;;3.58;;
7903;SDS011;3997;48.416;8.512;2023-03-17T13:35:35;3.95;;;3.83;;
7903;SDS011;3997;48.416;8.512;2023-03-17T13:38:12;3.72;;;3.55;;
7903;SDS011;3997;48.416;8.512;2023-03-17T13:40:45;3.88;;;3.67;;
7903;SDS011;3997;48.416;8.512;2023-03-17T13:43:18;4.13;;;3.92;;
7903;SDS011;3997;48.416;8.512;2023-03-17T13:45:48;4.20;;;3.90;;
7903;SDS011;3997;48.416;8.512;2023-03-17T13:48:26;3.78;;;3.47;;
7903;SDS011;3997;48.416;8.512;2023-03-17T13:50:58;3.85;;;3.70;;
7903;SDS011;3997;48.416;8.512;2023-03-17T13:53:26;4.03;;;3.72;;
7903;SDS011;3997;48.416;8.512;2023-03-17T13:56:03;3.90;;;3.60;;
7903;SDS011;3997;48.416;8.512;2023-03-17T13:58:33;4.13;;;3.92;;
7903;SDS011;3997;48.416;8.512;2023-03-17T14:01:01;3.90;;;3.80;;
7903;SDS011;3997;48.416;8.512;2023-03-17T14:03:33;3.55;;;3.45;;
7903;SDS011;3997;48.416;8.512;2023-03-17T14:06:03;3.92;;;3.70;;
7903;SDS011;3997;48.416;8.512;2023-03-17T14:08:31;3.40;;;3.30;;
7903;SDS011;3997;48.416;8.512;2023-03-17T14:10:59;3.10;;;3.00;;
7903;SDS011;3997;48.416;8.512;2023-03-17T14:13:26;3.92;;;3.80;;
7903;SDS011;3997;48.416;8.512;2023-03-17T14:15:57;3.28;;;3.08;;
7903;SDS011;3997;48.416;8.512;2023-03-17T14:18:28;3.50;;;3.30;;
7903;SDS011;3997;48.416;8.512;2023-03-17T14:20:55;3.67;;;3.38;;
7903;SDS011;3997;48.416;8.512;2023-03-17T14:23:23;3.60;;;3.40;;
7903;SDS011;3997;48.416;8.512;2023-03-17T14:25:50;3.15;;;3.00;;
7903;SDS011;3997;48.416;8.512;2023-03-17T14:28:21;3.65;;;3.30;;
7903;SDS011;3997;48.416;8.512;2023-03-17T14:30:50;3.55;;;3.35;;
7903;SDS011;3997;48.416;8.512;2023-03-17T14:33:20;3.40;;;3.30;;
7903;SDS011;3997;48.416;8.512;2023-03-17T14:35:48;3.65;;;3.35;;
7903;SDS011;3997;48.416;8.512;2023-03-17T14:38:16;3.10;;;3.00;;
7903;SDS011;3997;48.416;8.512;2023-03-17T14:40:45;3.47;;;3.38;;
7903;SDS011;3997;48.416;8.512;2023-03-17T14:43:11;3.60;;;3.33;;
7903;SDS011;3997;48.416;8.512;2023-03-17T14:45:41;3.70;;;3.60;;
7903;SDS011;3997;48.416;8.512;2023-03-17T14:48:11;3.53;;;3.25;;
7903;SDS011;3997;48.416;8.512;2023-03-17T14:50:45;3.65;;;3.38;;
7903;SDS011;3997;48.416;8.512;2023-03-17T14:53:12;3.30;;;3.20;;
7903;SDS011;3997;48.416;8.512;2023-03-17T14:55:40;3.25;;;3.08;;
7903;SDS011;3997;48.416;8.512;2023-03-17T14:58:09;3.20;;;3.10;;
7903;SDS011;3997;48.416;8.512;2023-03-17T15:00:43;3.60;;;3.40;;
7903;SDS011;3997;48.416;8.512;2023-03-17T15:03:15;3.60;;;3.30;;
7903;SDS011;3997;48.416;8.512;2023-03-17T15:05:42;3.45;;;3.25;;
7903;SDS011;3997;48.416;8.512;2023-03-17T15:08:28;3.53;;;3.33;;
7903;SDS011;3997;48.416;8.512;2023-03-17T15:10:56;3.30;;;3.20;;
7903;SDS011;3997;48.416;8.512;2023-03-17T15:13:25;3.38;;;3.28;;
7903;SDS011;3997;48.416;8.512;2023-03-17T15:15:51;3.20;;;3.10;;
7903;SDS011;3997;48.416;8.512;2023-03-17T15:18:18;3.33;;;3.13;;
7903;SDS011;3997;48.416;8.512;2023-03-17T15:20:45;10.80;;;9.73;;
7903;SDS011;3997;48.416;8.512;2023-03-17T15:23:14;3.33;;;3.20;;
7903;SDS011;3997;48.416;8.512;2023-03-17T15:25:41;4.70;;;2.88;;
7903;SDS011;3997;48.416;8.512;2023-03-17T15:28:09;3.17;;;2.97;;
7903;SDS011;3997;48.416;8.512;2023-03-17T15:30:39;2.75;;;2.65;;
7903;SDS011;3997;48.416;8.512;2023-03-17T15:33:14;2.15;;;2.05;;
7903;SDS011;3997;48.416;8.512;2023-03-17T15:35:42;3.72;;;2.20;;
7903;SDS011;3997;48.416;8.512;2023-03-17T15:38:09;2.85;;;2.75;;
7903;SDS011;3997;48.416;8.512;2023-03-17T15:40:36;2.35;;;2.15;;